sensor_id;sensor_type;location;lat;lon;timestamp;temperature;humidity
1219;DHT22;599;51.494;6.670;2022-08-21T00:00:21;17.30;1.00
1219;DHT22;599;51.494;6.670;2022-08-21T00:02:53;17.20;1.00
1219;DHT22;599;51.494;6.670;2022-08-21T00:05:25;17.20;1.00
1219;DHT22;599;51.494;6.670;2022-08-21T00:07:52;17.20;1.00
1219;DHT22;599;51.494;6.670;2022-08-21T00:10:19;17.10;1.00
1219;DHT22;599;51.494;6.670;2022-08-21T00:12:45;17.10;1.00
1219;DHT22;599;51.494;6.670;2022-08-21T00:15:14;17.10;1.00
1219;DHT22;599;51.494;6.670;2022-08-21T00:17:42;17.00;1.00
1219;DHT22;599;51.494;6.670;2022-08-21T00:20:11;16.90;1.00
1219;DHT22;599;51.494;6.670;2022-08-21T00:22:38;16.90;1.00
1219;DHT22;599;51.494;6.670;2022-08-21T00:25:07;16.80;1.00
1219;DHT22;599;51.494;6.670;2022-08-21T00:27:34;16.80;1.00
1219;DHT22;599;51.494;6.670;2022-08-21T00:30:00;16.80;1.00
1219;DHT22;599;51.494;6.670;2022-08-21T00:32:27;16.70;1.00
1219;DHT22;599;51.494;6.670;2022-08-21T00:34:54;16.70;1.00
1219;DHT22;599;51.494;6.670;2022-08-21T00:37:20;16.60;1.00
1219;DHT22;599;51.494;6.670;2022-08-21T00:39:46;16.60;1.00
1219;DHT22;599;51.494;6.670;2022-08-21T00:42:13;16.50;1.00
1219;DHT22;599;51.494;6.670;2022-08-21T00:44:46;16.50;1.00
1219;DHT22;599;51.494;6.670;2022-08-21T00:47:13;16.50;1.00
1219;DHT22;599;51.494;6.670;2022-08-21T00:49:40;16.50;1.00
1219;DHT22;599;51.494;6.670;2022-08-21T00:52:11;16.40;1.00
1219;DHT22;599;51.494;6.670;2022-08-21T00:54:40;16.40;1.00
1219;DHT22;599;51.494;6.670;2022-08-21T00:57:16;16.30;1.00
1219;DHT22;599;51.494;6.670;2022-08-21T00:59:48;16.30;1.00
1219;DHT22;599;51.494;6.670;2022-08-21T01:02:16;16.30;1.00
1219;DHT22;599;51.494;6.670;2022-08-21T01:04:43;16.20;1.00
1219;DHT22;599;51.494;6.670;2022-08-21T01:07:09;16.20;1.00
1219;DHT22;599;51.494;6.670;2022-08-21T01:09:36;16.20;1.00
1219;DHT22;599;51.494;6.670;2022-08-21T01:12:02;16.20;1.00
1219;DHT22;599;51.494;6.670;2022-08-21T01:14:29;16.20;1.00
1219;DHT22;599;51.494;6.670;2022-08-21T01:16:56;16.20;1.00
1219;DHT22;599;51.494;6.670;2022-08-21T01:19:24;16.10;1.00
1219;DHT22;599;51.494;6.670;2022-08-21T01:21:54;16.10;1.00
1219;DHT22;599;51.494;6.670;2022-08-21T01:24:20;16.10;1.00
1219;DHT22;599;51.494;6.670;2022-08-21T01:26:49;16.00;1.00
1219;DHT22;599;51.494;6.670;2022-08-21T01:29:51;16.00;1.00
1219;DHT22;599;51.494;6.670;2022-08-21T01:32:21;16.00;1.00
1219;DHT22;599;51.494;6.670;2022-08-21T01:34:49;15.90;1.00
1219;DHT22;599;51.494;6.670;2022-08-21T01:37:16;15.90;1.00
1219;DHT22;599;51.494;6.670;2022-08-21T01:39:43;15.90;1.00
1219;DHT22;599;51.494;6.670;2022-08-21T01:42:09;15.90;1.00
1219;DHT22;599;51.494;6.670;2022-08-21T01:44:35;15.80;1.00
1219;DHT22;599;51.494;6.670;2022-08-21T01:47:05;15.70;1.00
1219;DHT22;599;51.494;6.670;2022-08-21T01:49:33;15.80;1.00
1219;DHT22;599;51.494;6.670;2022-08-21T01:52:00;15.70;1.00
1219;DHT22;599;51.494;6.670;2022-08-21T01:54:26;15.70;1.00
1219;DHT22;599;51.494;6.670;2022-08-21T01:56:53;15.70;1.00
1219;DHT22;599;51.494;6.670;2022-08-21T01:59:21;15.70;1.00
1219;DHT22;599;51.494;6.670;2022-08-21T02:01:48;15.70;1.00
1219;DHT22;599;51.494;6.670;2022-08-21T02:04:14;15.70;1.00
1219;DHT22;599;51.494;6.670;2022-08-21T02:06:40;15.70;1.00
1219;DHT22;599;51.494;6.670;2022-08-21T02:09:08;15.60;1.00
1219;DHT22;599;51.494;6.670;2022-08-21T02:11:36;15.60;1.00
1219;DHT22;599;51.494;6.670;2022-08-21T02:14:13;15.60;1.00
1219;DHT22;599;51.494;6.670;2022-08-21T02:16:41;15.50;1.00
1219;DHT22;599;51.494;6.670;2022-08-21T02:19:09;15.50;1.00
1219;DHT22;599;51.494;6.670;2022-08-21T02:21:35;15.50;1.00
1219;DHT22;599;51.494;6.670;2022-08-21T02:24:01;15.50;1.00
1219;DHT22;599;51.494;6.670;2022-08-21T02:26:28;15.50;1.00
1219;DHT22;599;51.494;6.670;2022-08-21T02:28:54;15.40;1.00
1219;DHT22;599;51.494;6.670;2022-08-21T02:31:20;15.40;1.00
1219;DHT22;599;51.494;6.670;2022-08-21T02:33:46;15.40;1.00
1219;DHT22;599;51.494;6.670;2022-08-21T02:36:12;15.40;1.00
1219;DHT22;599;51.494;6.670;2022-08-21T02:38:40;15.40;1.00
1219;DHT22;599;51.494;6.670;2022-08-21T02:41:13;15.40;1.00
1219;DHT22;599;51.494;6.670;2022-08-21T02:43:42;15.40;1.00
1219;DHT22;599;51.494;6.670;2022-08-21T02:46:10;15.40;1.00
1219;DHT22;599;51.494;6.670;2022-08-21T02:48:37;15.40;1.00
1219;DHT22;599;51.494;6.670;2022-08-21T02:51:10;15.40;1.00
1219;DHT22;599;51.494;6.670;2022-08-21T02:53:38;15.40;1.00
1219;DHT22;599;51.494;6.670;2022-08-21T02:56:07;15.40;1.00
1219;DHT22;599;51.494;6.670;2022-08-21T02:58:37;15.40;1.00
1219;DHT22;599;51.494;6.670;2022-08-21T03:01:06;15.40;1.00
1219;DHT22;599;51.494;6.670;2022-08-21T03:03:37;15.40;1.00
1219;DHT22;599;51.494;6.670;2022-08-21T03:06:05;15.40;1.00
1219;DHT22;599;51.494;6.670;2022-08-21T03:08:34;15.40;1.00
1219;DHT22;599;51.494;6.670;2022-08-21T03:11:00;15.30;1.00
1219;DHT22;599;51.494;6.670;2022-08-21T03:13:29;15.30;1.00
1219;DHT22;599;51.494;6.670;2022-08-21T03:15:55;15.30;1.00
1219;DHT22;599;51.494;6.670;2022-08-21T03:18:21;15.30;1.00
1219;DHT22;599;51.494;6.670;2022-08-21T03:20:48;15.30;1.00
1219;DHT22;599;51.494;6.670;2022-08-21T03:23:15;15.30;1.00
1219;DHT22;599;51.494;6.670;2022-08-21T03:25:42;15.30;1.00
1219;DHT22;599;51.494;6.670;2022-08-21T03:28:13;15.30;1.00
1219;DHT22;599;51.494;6.670;2022-08-21T03:30:44;15.30;1.00
1219;DHT22;599;51.494;6.670;2022-08-21T03:33:12;15.30;1.00
1219;DHT22;599;51.494;6.670;2022-08-21T03:35:37;15.30;1.00
1219;DHT22;599;51.494;6.670;2022-08-21T03:38:03;15.30;1.00
1219;DHT22;599;51.494;6.670;2022-08-21T03:40:30;15.20;1.00
1219;DHT22;599;51.494;6.670;2022-08-21T03:42:55;15.20;1.00
1219;DHT22;599;51.494;6.670;2022-08-21T03:45:21;15.20;1.00
1219;DHT22;599;51.494;6.670;2022-08-21T03:47:59;15.20;1.00
1219;DHT22;599;51.494;6.670;2022-08-21T03:50:30;15.20;1.00
1219;DHT22;599;51.494;6.670;2022-08-21T03:52:58;15.20;1.00
1219;DHT22;599;51.494;6.670;2022-08-21T03:55:25;15.10;1.00
1219;DHT22;599;51.494;6.670;2022-08-21T03:57:52;15.10;1.00
1219;DHT22;599;51.494;6.670;2022-08-21T04:00:19;15.10;1.00
1219;DHT22;599;51.494;6.670;2022-08-21T04:02:46;15.10;1.00
1219;DHT22;599;51.494;6.670;2022-08-21T04:05:13;15.10;1.00
1219;DHT22;599;51.494;6.670;2022-08-21T04:07:54;15.00;1.00
1219;DHT22;599;51.494;6.670;2022-08-21T04:10:20;15.00;1.00
1219;DHT22;599;51.494;6.670;2022-08-21T04:12:47;15.00;1.00
1219;DHT22;599;51.494;6.670;2022-08-21T04:15:12;14.90;1.00
1219;DHT22;599;51.494;6.670;2022-08-21T04:17:38;14.90;1.00
1219;DHT22;599;51.494;6.670;2022-08-21T04:20:05;15.00;1.00
1219;DHT22;599;51.494;6.670;2022-08-21T04:22:31;15.00;1.00
1219;DHT22;599;51.494;6.670;2022-08-21T04:24:57;15.00;1.00
1219;DHT22;599;51.494;6.670;2022-08-21T04:27:23;15.00;1.00
1219;DHT22;599;51.494;6.670;2022-08-21T04:29:49;15.00;1.00
1219;DHT22;599;51.494;6.670;2022-08-21T04:32:24;15.00;1.00
1219;DHT22;599;51.494;6.670;2022-08-21T04:35:00;15.00;1.00
1219;DHT22;599;51.494;6.670;2022-08-21T04:37:30;15.00;1.00
1219;DHT22;599;51.494;6.670;2022-08-21T04:39:56;15.00;1.00
1219;DHT22;599;51.494;6.670;2022-08-21T04:42:26;15.00;1.00
1219;DHT22;599;51.494;6.670;2022-08-21T04:44:53;15.00;1.00
1219;DHT22;599;51.494;6.670;2022-08-21T04:47:20;15.10;1.00
1219;DHT22;599;51.494;6.670;2022-08-21T04:49:47;15.10;1.00
1219;DHT22;599;51.494;6.670;2022-08-21T04:52:17;15.10;1.00
1219;DHT22;599;51.494;6.670;2022-08-21T04:54:45;15.10;1.00
1219;DHT22;599;51.494;6.670;2022-08-21T04:57:13;15.10;1.00
1219;DHT22;599;51.494;6.670;2022-08-21T04:59:43;15.10;1.00
1219;DHT22;599;51.494;6.670;2022-08-21T05:02:12;15.20;1.00
1219;DHT22;599;51.494;6.670;2022-08-21T05:04:46;15.20;1.00
1219;DHT22;599;51.494;6.670;2022-08-21T05:07:19;15.20;1.00
1219;DHT22;599;51.494;6.670;2022-08-21T05:09:46;15.30;1.00
1219;DHT22;599;51.494;6.670;2022-08-21T05:12:12;15.30;1.00
1219;DHT22;599;51.494;6.670;2022-08-21T05:14:38;15.30;1.00
1219;DHT22;599;51.494;6.670;2022-08-21T05:17:04;15.40;1.00
1219;DHT22;599;51.494;6.670;2022-08-21T05:19:30;15.40;1.00
1219;DHT22;599;51.494;6.670;2022-08-21T05:21:57;15.50;1.00
1219;DHT22;599;51.494;6.670;2022-08-21T05:24:23;15.50;1.00
1219;DHT22;599;51.494;6.670;2022-08-21T05:26:50;15.60;1.00
1219;DHT22;599;51.494;6.670;2022-08-21T05:29:16;15.60;1.00
1219;DHT22;599;51.494;6.670;2022-08-21T05:31:43;15.70;1.00
1219;DHT22;599;51.494;6.670;2022-08-21T05:34:09;15.80;1.00
1219;DHT22;599;51.494;6.670;2022-08-21T05:36:35;15.80;1.00
1219;DHT22;599;51.494;6.670;2022-08-21T05:39:01;15.90;1.00
1219;DHT22;599;51.494;6.670;2022-08-21T05:41:27;16.00;1.00
1219;DHT22;599;51.494;6.670;2022-08-21T05:43:53;16.00;1.00
1219;DHT22;599;51.494;6.670;2022-08-21T05:46:19;16.00;1.00
1219;DHT22;599;51.494;6.670;2022-08-21T05:48:45;16.10;1.00
1219;DHT22;599;51.494;6.670;2022-08-21T05:51:13;16.10;1.00
1219;DHT22;599;51.494;6.670;2022-08-21T05:53:40;16.10;1.00
1219;DHT22;599;51.494;6.670;2022-08-21T05:56:08;16.20;1.00
1219;DHT22;599;51.494;6.670;2022-08-21T05:58:34;16.20;1.00
1219;DHT22;599;51.494;6.670;2022-08-21T06:01:02;16.30;1.00
1219;DHT22;599;51.494;6.670;2022-08-21T06:03:31;16.40;1.00
1219;DHT22;599;51.494;6.670;2022-08-21T06:06:00;16.50;1.00
1219;DHT22;599;51.494;6.670;2022-08-21T06:08:28;16.50;1.00
1219;DHT22;599;51.494;6.670;2022-08-21T06:10:57;16.50;1.00
1219;DHT22;599;51.494;6.670;2022-08-21T06:13:24;16.50;1.00
1219;DHT22;599;51.494;6.670;2022-08-21T06:16:04;16.70;1.00
1219;DHT22;599;51.494;6.670;2022-08-21T06:18:33;16.60;1.00
1219;DHT22;599;51.494;6.670;2022-08-21T06:21:00;16.70;1.00
1219;DHT22;599;51.494;6.670;2022-08-21T06:23:26;16.80;1.00
1219;DHT22;599;51.494;6.670;2022-08-21T06:25:52;16.80;1.00
1219;DHT22;599;51.494;6.670;2022-08-21T06:28:19;16.90;1.00
1219;DHT22;599;51.494;6.670;2022-08-21T06:30:45;16.90;1.00
1219;DHT22;599;51.494;6.670;2022-08-21T06:33:12;16.90;1.00
1219;DHT22;599;51.494;6.670;2022-08-21T06:35:38;17.00;1.00
1219;DHT22;599;51.494;6.670;2022-08-21T06:38:05;17.10;1.00
1219;DHT22;599;51.494;6.670;2022-08-21T06:40:31;17.20;1.00
1219;DHT22;599;51.494;6.670;2022-08-21T06:42:58;17.20;1.00
1219;DHT22;599;51.494;6.670;2022-08-21T06:45:31;17.30;1.00
1219;DHT22;599;51.494;6.670;2022-08-21T06:47:58;17.30;1.00
1219;DHT22;599;51.494;6.670;2022-08-21T06:50:24;17.40;1.00
1219;DHT22;599;51.494;6.670;2022-08-21T06:53:02;17.50;1.00
1219;DHT22;599;51.494;6.670;2022-08-21T06:55:31;17.50;1.00
1219;DHT22;599;51.494;6.670;2022-08-21T06:57:58;17.60;1.00
1219;DHT22;599;51.494;6.670;2022-08-21T07:00:25;17.80;1.00
1219;DHT22;599;51.494;6.670;2022-08-21T07:02:51;17.80;1.00
1219;DHT22;599;51.494;6.670;2022-08-21T07:05:18;17.90;1.00
1219;DHT22;599;51.494;6.670;2022-08-21T07:07:45;18.10;99.90
1219;DHT22;599;51.494;6.670;2022-08-21T07:10:12;18.20;99.90
1219;DHT22;599;51.494;6.670;2022-08-21T07:12:40;18.20;99.90
1219;DHT22;599;51.494;6.670;2022-08-21T07:15:07;18.20;99.90
1219;DHT22;599;51.494;6.670;2022-08-21T07:17:34;18.30;99.90
1219;DHT22;599;51.494;6.670;2022-08-21T07:20:00;18.30;99.90
1219;DHT22;599;51.494;6.670;2022-08-21T07:22:27;18.40;99.90
1219;DHT22;599;51.494;6.670;2022-08-21T07:24:54;18.50;99.90
1219;DHT22;599;51.494;6.670;2022-08-21T07:27:21;18.60;99.90
1219;DHT22;599;51.494;6.670;2022-08-21T07:29:47;18.60;99.90
1219;DHT22;599;51.494;6.670;2022-08-21T07:32:14;18.70;99.90
1219;DHT22;599;51.494;6.670;2022-08-21T07:34:41;18.80;99.90
1219;DHT22;599;51.494;6.670;2022-08-21T07:37:08;18.80;99.90
1219;DHT22;599;51.494;6.670;2022-08-21T07:39:34;18.80;99.90
1219;DHT22;599;51.494;6.670;2022-08-21T07:42:00;18.90;99.90
1219;DHT22;599;51.494;6.670;2022-08-21T07:44:28;19.00;99.90
1219;DHT22;599;51.494;6.670;2022-08-21T07:46:55;19.00;99.90
1219;DHT22;599;51.494;6.670;2022-08-21T07:49:21;18.90;99.90
1219;DHT22;599;51.494;6.670;2022-08-21T07:51:48;18.90;99.90
1219;DHT22;599;51.494;6.670;2022-08-21T07:54:14;18.90;99.90
1219;DHT22;599;51.494;6.670;2022-08-21T07:56:40;18.90;99.90
1219;DHT22;599;51.494;6.670;2022-08-21T07:59:07;18.90;99.90
1219;DHT22;599;51.494;6.670;2022-08-21T08:01:33;19.00;99.90
1219;DHT22;599;51.494;6.670;2022-08-21T08:03:59;19.00;99.90
1219;DHT22;599;51.494;6.670;2022-08-21T08:06:26;19.00;99.90
1219;DHT22;599;51.494;6.670;2022-08-21T08:08:52;19.10;99.90
1219;DHT22;599;51.494;6.670;2022-08-21T08:11:19;19.30;99.90
1219;DHT22;599;51.494;6.670;2022-08-21T08:13:47;19.30;99.90
1219;DHT22;599;51.494;6.670;2022-08-21T08:16:16;19.40;99.90
1219;DHT22;599;51.494;6.670;2022-08-21T08:18:43;19.50;99.90
1219;DHT22;599;51.494;6.670;2022-08-21T08:21:11;19.60;99.90
1219;DHT22;599;51.494;6.670;2022-08-21T08:23:38;19.70;99.90
1219;DHT22;599;51.494;6.670;2022-08-21T08:26:05;19.70;99.90
1219;DHT22;599;51.494;6.670;2022-08-21T08:28:32;19.80;99.90
1219;DHT22;599;51.494;6.670;2022-08-21T08:31:00;19.80;99.90
1219;DHT22;599;51.494;6.670;2022-08-21T08:33:26;19.80;99.90
1219;DHT22;599;51.494;6.670;2022-08-21T08:35:53;20.00;99.90
1219;DHT22;599;51.494;6.670;2022-08-21T08:38:22;20.10;99.90
1219;DHT22;599;51.494;6.670;2022-08-21T08:40:58;20.30;99.90
1219;DHT22;599;51.494;6.670;2022-08-21T08:43:50;20.50;99.90
1219;DHT22;599;51.494;6.670;2022-08-21T08:46:25;20.50;99.90
1219;DHT22;599;51.494;6.670;2022-08-21T08:49:06;20.50;99.90
1219;DHT22;599;51.494;6.670;2022-08-21T08:51:52;20.50;99.90
1219;DHT22;599;51.494;6.670;2022-08-21T08:54:29;20.60;99.90
1219;DHT22;599;51.494;6.670;2022-08-21T08:57:00;20.60;99.90
1219;DHT22;599;51.494;6.670;2022-08-21T08:59:37;20.70;99.90
1219;DHT22;599;51.494;6.670;2022-08-21T09:02:05;20.90;99.90
1219;DHT22;599;51.494;6.670;2022-08-21T09:04:31;20.90;99.90
1219;DHT22;599;51.494;6.670;2022-08-21T09:07:16;20.90;99.90
1219;DHT22;599;51.494;6.670;2022-08-21T09:10:23;20.90;99.90
1219;DHT22;599;51.494;6.670;2022-08-21T09:20:17;21.10;99.90
1219;DHT22;599;51.494;6.670;2022-08-21T09:23:25;21.10;99.90
1219;DHT22;599;51.494;6.670;2022-08-21T09:25:55;21.00;99.90
1219;DHT22;599;51.494;6.670;2022-08-21T09:28:38;21.20;99.90
1219;DHT22;599;51.494;6.670;2022-08-21T09:31:19;21.40;99.90
1219;DHT22;599;51.494;6.670;2022-08-21T09:33:47;21.50;99.90
1219;DHT22;599;51.494;6.670;2022-08-21T09:36:32;21.60;99.90
1219;DHT22;599;51.494;6.670;2022-08-21T09:39:03;21.70;99.90
1219;DHT22;599;51.494;6.670;2022-08-21T09:41:31;21.80;99.90
1219;DHT22;599;51.494;6.670;2022-08-21T09:44:02;21.80;99.90
1219;DHT22;599;51.494;6.670;2022-08-21T09:46:28;21.90;99.90
1219;DHT22;599;51.494;6.670;2022-08-21T09:48:58;22.00;99.90
1219;DHT22;599;51.494;6.670;2022-08-21T09:51:32;22.20;99.90
1219;DHT22;599;51.494;6.670;2022-08-21T09:56:38;23.10;99.90
1219;DHT22;599;51.494;6.670;2022-08-21T10:01:58;23.50;99.90
1219;DHT22;599;51.494;6.670;2022-08-21T10:04:31;24.10;99.90
1219;DHT22;599;51.494;6.670;2022-08-21T10:07:10;23.80;99.90
1219;DHT22;599;51.494;6.670;2022-08-21T10:09:38;23.40;99.90
1219;DHT22;599;51.494;6.670;2022-08-21T10:12:19;23.40;99.90
1219;DHT22;599;51.494;6.670;2022-08-21T10:17:55;23.60;99.90
1219;DHT22;599;51.494;6.670;2022-08-21T10:20:49;23.60;99.90
1219;DHT22;599;51.494;6.670;2022-08-21T10:40:28;25.00;99.90
1219;DHT22;599;51.494;6.670;2022-08-21T10:43:35;25.40;99.90
1219;DHT22;599;51.494;6.670;2022-08-21T10:52:25;26.70;99.90
1219;DHT22;599;51.494;6.670;2022-08-21T10:57:38;28.00;99.90
1219;DHT22;599;51.494;6.670;2022-08-21T11:00:14;29.10;96.20
1219;DHT22;599;51.494;6.670;2022-08-21T11:02:56;29.90;87.00
1219;DHT22;599;51.494;6.670;2022-08-21T11:05:38;29.80;74.10
1219;DHT22;599;51.494;6.670;2022-08-21T11:08:13;30.60;63.60
1219;DHT22;599;51.494;6.670;2022-08-21T11:10:47;31.90;46.60
1219;DHT22;599;51.494;6.670;2022-08-21T11:16:13;33.30;32.90
1219;DHT22;599;51.494;6.670;2022-08-21T11:24:58;38.80;3.10
1219;DHT22;599;51.494;6.670;2022-08-21T11:30:14;38.50;1.00
1219;DHT22;599;51.494;6.670;2022-08-21T11:34:01;40.20;1.00
1219;DHT22;599;51.494;6.670;2022-08-21T11:36:02;42.00;1.00
1219;DHT22;599;51.494;6.670;2022-08-21T11:41:46;40.60;1.00
1219;DHT22;599;51.494;6.670;2022-08-21T11:50:26;42.60;1.00
1219;DHT22;599;51.494;6.670;2022-08-21T11:53:01;41.50;1.00
1219;DHT22;599;51.494;6.670;2022-08-21T11:55:43;41.20;1.00
1219;DHT22;599;51.494;6.670;2022-08-21T11:58:32;41.20;1.00
1219;DHT22;599;51.494;6.670;2022-08-21T12:01:19;42.20;1.00
1219;DHT22;599;51.494;6.670;2022-08-21T12:06:46;38.60;1.00
1219;DHT22;599;51.494;6.670;2022-08-21T12:12:02;37.80;1.00
1219;DHT22;599;51.494;6.670;2022-08-21T12:14:46;39.40;1.00
1219;DHT22;599;51.494;6.670;2022-08-21T12:17:22;41.10;1.00
1219;DHT22;599;51.494;6.670;2022-08-21T12:20:01;41.10;1.00
1219;DHT22;599;51.494;6.670;2022-08-21T12:25:42;36.60;1.00
1219;DHT22;599;51.494;6.670;2022-08-21T12:28:16;35.20;3.00
1219;DHT22;599;51.494;6.670;2022-08-21T12:30:47;33.80;10.30
1219;DHT22;599;51.494;6.670;2022-08-21T12:36:11;32.70;13.20
1219;DHT22;599;51.494;6.670;2022-08-21T12:38:54;32.10;17.40
1219;DHT22;599;51.494;6.670;2022-08-21T12:41:30;31.70;19.50
1219;DHT22;599;51.494;6.670;2022-08-21T12:44:07;31.50;22.00
1219;DHT22;599;51.494;6.670;2022-08-21T12:46:57;31.10;23.30
1219;DHT22;599;51.494;6.670;2022-08-21T12:50:08;30.10;26.20
1219;DHT22;599;51.494;6.670;2022-08-21T12:52:45;30.00;33.60
1219;DHT22;599;51.494;6.670;2022-08-21T12:55:28;30.10;28.10
1219;DHT22;599;51.494;6.670;2022-08-21T12:57:56;30.30;29.10
1219;DHT22;599;51.494;6.670;2022-08-21T13:00:25;30.30;29.80
1219;DHT22;599;51.494;6.670;2022-08-21T13:02:54;30.10;29.00
1219;DHT22;599;51.494;6.670;2022-08-21T13:05:35;29.70;32.20
1219;DHT22;599;51.494;6.670;2022-08-21T13:08:06;29.90;34.50
1219;DHT22;599;51.494;6.670;2022-08-21T13:10:34;29.90;32.40
1219;DHT22;599;51.494;6.670;2022-08-21T13:13:08;29.90;25.10
1219;DHT22;599;51.494;6.670;2022-08-21T13:15:39;29.80;28.00
1219;DHT22;599;51.494;6.670;2022-08-21T13:18:07;29.70;27.40
1219;DHT22;599;51.494;6.670;2022-08-21T13:20:40;29.70;28.10
1219;DHT22;599;51.494;6.670;2022-08-21T13:23:20;29.50;36.70
1219;DHT22;599;51.494;6.670;2022-08-21T13:25:49;29.60;29.80
1219;DHT22;599;51.494;6.670;2022-08-21T13:28:15;29.80;32.80
1219;DHT22;599;51.494;6.670;2022-08-21T13:31:00;30.00;32.20
1219;DHT22;599;51.494;6.670;2022-08-21T13:33:30;30.00;28.20
1219;DHT22;599;51.494;6.670;2022-08-21T13:36:11;30.00;31.50
1219;DHT22;599;51.494;6.670;2022-08-21T13:38:46;30.00;26.60
1219;DHT22;599;51.494;6.670;2022-08-21T13:43:45;29.00;37.70
1219;DHT22;599;51.494;6.670;2022-08-21T13:46:15;28.80;43.00
1219;DHT22;599;51.494;6.670;2022-08-21T13:48:43;28.60;37.50
1219;DHT22;599;51.494;6.670;2022-08-21T13:51:09;28.50;49.70
1219;DHT22;599;51.494;6.670;2022-08-21T13:56:30;28.10;45.50
1219;DHT22;599;51.494;6.670;2022-08-21T13:59:00;27.90;43.60
1219;DHT22;599;51.494;6.670;2022-08-21T14:01:31;27.70;44.10
1219;DHT22;599;51.494;6.670;2022-08-21T14:04:07;27.70;54.70
1219;DHT22;599;51.494;6.670;2022-08-21T14:06:41;27.50;54.80
1219;DHT22;599;51.494;6.670;2022-08-21T14:09:12;27.50;50.30
1219;DHT22;599;51.494;6.670;2022-08-21T14:11:41;27.40;54.50
1219;DHT22;599;51.494;6.670;2022-08-21T14:14:22;27.20;61.70
1219;DHT22;599;51.494;6.670;2022-08-21T14:17:06;27.00;59.40
1219;DHT22;599;51.494;6.670;2022-08-21T14:19:51;26.90;58.10
1219;DHT22;599;51.494;6.670;2022-08-21T14:22:42;26.80;57.60
1219;DHT22;599;51.494;6.670;2022-08-21T14:25:14;27.00;67.90
1219;DHT22;599;51.494;6.670;2022-08-21T14:27:59;27.20;67.10
1219;DHT22;599;51.494;6.670;2022-08-21T14:30:31;27.40;58.30
1219;DHT22;599;51.494;6.670;2022-08-21T14:32:59;27.70;52.70
1219;DHT22;599;51.494;6.670;2022-08-21T14:35:26;27.80;54.60
1219;DHT22;599;51.494;6.670;2022-08-21T14:37:52;28.00;54.00
1219;DHT22;599;51.494;6.670;2022-08-21T14:40:21;28.30;55.90
1219;DHT22;599;51.494;6.670;2022-08-21T14:42:49;28.30;40.50
1219;DHT22;599;51.494;6.670;2022-08-21T14:45:23;28.10;43.50
1219;DHT22;599;51.494;6.670;2022-08-21T14:47:52;28.00;45.50
1219;DHT22;599;51.494;6.670;2022-08-21T14:50:18;28.00;47.90
1219;DHT22;599;51.494;6.670;2022-08-21T14:52:45;27.80;59.60
1219;DHT22;599;51.494;6.670;2022-08-21T14:55:13;27.90;54.60
1219;DHT22;599;51.494;6.670;2022-08-21T14:57:45;27.80;52.20
1219;DHT22;599;51.494;6.670;2022-08-21T15:00:15;27.90;50.60
1219;DHT22;599;51.494;6.670;2022-08-21T15:02:44;28.00;52.40
1219;DHT22;599;51.494;6.670;2022-08-21T15:05:10;27.70;50.20
1219;DHT22;599;51.494;6.670;2022-08-21T15:07:36;27.50;52.50
1219;DHT22;599;51.494;6.670;2022-08-21T15:10:04;27.50;60.80
1219;DHT22;599;51.494;6.670;2022-08-21T15:12:31;27.50;59.30
1219;DHT22;599;51.494;6.670;2022-08-21T15:14:57;27.60;53.60
1219;DHT22;599;51.494;6.670;2022-08-21T15:17:23;27.70;53.80
1219;DHT22;599;51.494;6.670;2022-08-21T15:19:49;27.70;52.70
1219;DHT22;599;51.494;6.670;2022-08-21T15:22:15;27.70;50.70
1219;DHT22;599;51.494;6.670;2022-08-21T15:24:40;27.70;56.30
1219;DHT22;599;51.494;6.670;2022-08-21T15:27:08;27.70;54.40
1219;DHT22;599;51.494;6.670;2022-08-21T15:29:36;27.70;49.70
1219;DHT22;599;51.494;6.670;2022-08-21T15:32:22;27.60;46.10
1219;DHT22;599;51.494;6.670;2022-08-21T15:34:53;27.50;54.00
1219;DHT22;599;51.494;6.670;2022-08-21T15:37:20;27.30;49.50
1219;DHT22;599;51.494;6.670;2022-08-21T15:39:47;27.20;50.50
1219;DHT22;599;51.494;6.670;2022-08-21T15:42:14;27.20;54.00
1219;DHT22;599;51.494;6.670;2022-08-21T15:44:41;27.20;55.80
1219;DHT22;599;51.494;6.670;2022-08-21T15:47:21;27.20;46.90
1219;DHT22;599;51.494;6.670;2022-08-21T15:49:56;27.20;48.40
1219;DHT22;599;51.494;6.670;2022-08-21T15:52:22;27.10;51.10
1219;DHT22;599;51.494;6.670;2022-08-21T15:54:49;27.20;44.40
1219;DHT22;599;51.494;6.670;2022-08-21T15:57:19;27.20;46.10
1219;DHT22;599;51.494;6.670;2022-08-21T15:59:51;27.20;45.30
1219;DHT22;599;51.494;6.670;2022-08-21T16:02:42;27.30;44.00
1219;DHT22;599;51.494;6.670;2022-08-21T16:05:10;27.40;41.70
1219;DHT22;599;51.494;6.670;2022-08-21T16:07:38;27.30;45.60
1219;DHT22;599;51.494;6.670;2022-08-21T16:10:06;27.10;40.00
1219;DHT22;599;51.494;6.670;2022-08-21T16:12:36;27.10;49.10
1219;DHT22;599;51.494;6.670;2022-08-21T16:15:08;27.00;53.40
1219;DHT22;599;51.494;6.670;2022-08-21T16:17:38;26.90;54.50
1219;DHT22;599;51.494;6.670;2022-08-21T16:20:10;26.80;56.90
1219;DHT22;599;51.494;6.670;2022-08-21T16:22:39;26.60;55.10
1219;DHT22;599;51.494;6.670;2022-08-21T16:25:05;26.50;60.50
1219;DHT22;599;51.494;6.670;2022-08-21T16:27:32;26.50;57.90
1219;DHT22;599;51.494;6.670;2022-08-21T16:29:59;26.30;55.50
1219;DHT22;599;51.494;6.670;2022-08-21T16:32:26;26.20;60.00
1219;DHT22;599;51.494;6.670;2022-08-21T16:34:52;26.10;58.60
1219;DHT22;599;51.494;6.670;2022-08-21T16:37:18;25.90;51.90
1219;DHT22;599;51.494;6.670;2022-08-21T16:39:44;25.90;60.40
1219;DHT22;599;51.494;6.670;2022-08-21T16:42:13;25.80;48.20
1219;DHT22;599;51.494;6.670;2022-08-21T16:44:41;25.70;52.20
1219;DHT22;599;51.494;6.670;2022-08-21T16:47:07;25.60;55.10
1219;DHT22;599;51.494;6.670;2022-08-21T16:49:33;25.50;51.40
1219;DHT22;599;51.494;6.670;2022-08-21T16:51:59;25.50;51.40
1219;DHT22;599;51.494;6.670;2022-08-21T16:54:25;25.40;56.20
1219;DHT22;599;51.494;6.670;2022-08-21T16:56:51;25.30;57.60
1219;DHT22;599;51.494;6.670;2022-08-21T16:59:17;25.30;62.60
1219;DHT22;599;51.494;6.670;2022-08-21T17:01:44;25.30;65.90
1219;DHT22;599;51.494;6.670;2022-08-21T17:04:10;25.30;61.90
1219;DHT22;599;51.494;6.670;2022-08-21T17:06:36;25.30;66.00
1219;DHT22;599;51.494;6.670;2022-08-21T17:09:02;25.20;62.00
1219;DHT22;599;51.494;6.670;2022-08-21T17:14:03;24.90;64.30
1219;DHT22;599;51.494;6.670;2022-08-21T17:16:43;24.80;66.80
1219;DHT22;599;51.494;6.670;2022-08-21T17:19:11;24.70;73.20
1219;DHT22;599;51.494;6.670;2022-08-21T17:21:37;24.70;84.00
1219;DHT22;599;51.494;6.670;2022-08-21T17:24:04;24.60;81.50
1219;DHT22;599;51.494;6.670;2022-08-21T17:26:30;24.50;85.50
1219;DHT22;599;51.494;6.670;2022-08-21T17:28:59;24.40;78.10
1219;DHT22;599;51.494;6.670;2022-08-21T17:31:25;24.40;82.20
1219;DHT22;599;51.494;6.670;2022-08-21T17:33:52;24.30;90.80
1219;DHT22;599;51.494;6.670;2022-08-21T17:36:20;24.20;89.30
1219;DHT22;599;51.494;6.670;2022-08-21T17:38:50;24.20;94.10
1219;DHT22;599;51.494;6.670;2022-08-21T17:41:16;24.10;94.10
1219;DHT22;599;51.494;6.670;2022-08-21T17:43:42;24.00;94.60
1219;DHT22;599;51.494;6.670;2022-08-21T17:46:14;23.90;97.00
1219;DHT22;599;51.494;6.670;2022-08-21T17:48:43;23.90;95.70
1219;DHT22;599;51.494;6.670;2022-08-21T17:51:08;23.80;99.90
1219;DHT22;599;51.494;6.670;2022-08-21T17:53:37;23.70;98.20
1219;DHT22;599;51.494;6.670;2022-08-21T17:56:04;23.60;99.90
1219;DHT22;599;51.494;6.670;2022-08-21T17:58:31;23.50;99.90
1219;DHT22;599;51.494;6.670;2022-08-21T18:00:59;23.40;99.90
1219;DHT22;599;51.494;6.670;2022-08-21T18:03:30;23.40;99.90
1219;DHT22;599;51.494;6.670;2022-08-21T18:05:58;23.30;99.90
1219;DHT22;599;51.494;6.670;2022-08-21T18:08:24;23.30;99.90